| time (UTC) | temp C | wind direction | speed KPH | gust KPH | rain 1hr cm | rain 24hr cm | rain mn cm | humidity % | barometer mb |
| 20260905120002 | 16 | 259 | 1.6 | 3.2 | 0.00 | 0.03 | 0.00 | 87 | 1010.6 |
| 20260905114600 | 16 | 267 | 1.6 | 3.2 | 0.00 | 0.03 | 0.00 | 87 | 1010.5 |
| 20260905113100 | 16 | 266 | 1.6 | 3.2 | 0.00 | 0.03 | 0.00 | 87 | 1010.4 |
| 20260905111557 | 16 | 231 | 1.6 | 4.8 | 0.00 | 0.03 | 0.00 | 87 | 1010.3 |
| 20260905110059 | 16 | 263 | 1.6 | 4.8 | 0.00 | 0.03 | 0.00 | 88 | 1010.1 |
| 20260905104557 | 16 | 232 | 1.6 | 3.2 | 0.00 | 0.03 | 0.00 | 87 | 1010.1 |
| 20260905103055 | 16 | 257 | 0.0 | 3.2 | 0.00 | 0.03 | 0.00 | 89 | 1009.9 |
| 20260905101552 | 16 | 281 | 1.6 | 4.8 | 0.00 | 0.03 | 0.00 | 87 | 1009.7 |
| 20260905100152 | 16 | 176 | 0.0 | 6.4 | 0.00 | 0.03 | 0.00 | 87 | 1009.6 |
| 20260905094549 | 16 | 268 | 1.6 | 4.8 | 0.00 | 0.03 | 0.00 | 87 | 1009.5 |
| 20260905093048 | 16 | 259 | 0.0 | 11.3 | 0.00 | 0.03 | 0.00 | 89 | 1009.4 |
| 20260905091550 | 16 | 175 | 0.0 | 4.8 | 0.00 | 0.03 | 0.00 | 90 | 1009.2 |
| 20260905090104 | 16 | 240 | 1.6 | 4.8 | 0.00 | 0.03 | 0.00 | 89 | 1009.1 |
| 20260905084544 | 16 | 235 | 1.6 | 6.4 | 0.00 | 0.03 | 0.00 | 89 | 1009.1 |
| 20260905083049 | 16 | 280 | 3.2 | 6.4 | 0.00 | 0.03 | 0.00 | 91 | 1009.0 |
| 20260905081552 | 15 | 195 | 0.0 | 3.2 | 0.00 | 0.03 | 0.00 | 94 | 1009.0 |
| 20260905080047 | 14 | 186 | 0.0 | 1.6 | 0.00 | 0.03 | 0.00 | 93 | 1008.9 |
| 20260905074540 | 15 | 157 | 0.0 | 0.0 | 0.00 | 0.03 | 0.00 | 93 | 1008.9 |
| 20260905073039 | 15 | 157 | 0.0 | 0.0 | 0.00 | 0.03 | 0.00 | 93 | 1008.8 |
| 20260905071539 | 15 | 188 | 0.0 | 0.0 | 0.00 | 0.03 | 0.00 | 92 | 1008.8 |
| 20260905070038 | 15 | 196 | 0.0 | 0.0 | 0.00 | 0.03 | 0.00 | 92 | 1008.7 |
| 20260905064535 | 15 | 134 | 0.0 | 0.0 | 0.00 | 0.03 | 0.00 | 92 | 1008.8 |
| 20260905063033 | 15 | 134 | 0.0 | 0.0 | 0.00 | 0.03 | 0.00 | 91 | 1008.8 |
| 20260905061530 | 16 | 134 | 0.0 | 0.0 | 0.00 | 0.03 | 0.00 | 91 | 1008.8 |
| 20260905060041 | 16 | 188 | 0.0 | 0.0 | 0.00 | 0.03 | 0.00 | 90 | 1008.9 |
| 20260905054535 | 16 | 188 | 0.0 | 1.6 | 0.00 | 0.03 | 0.00 | 89 | 1009.0 |
| 20260905053023 | 17 | 103 | 1.6 | 4.8 | 0.00 | 0.03 | 0.00 | 88 | 1009.0 |
| 20260905051528 | 17 | 269 | 1.6 | 4.8 | 0.00 | 0.03 | 0.00 | 88 | 1009.0 |
| 20260905050020 | 17 | 205 | 1.6 | 4.8 | 0.00 | 0.03 | 0.00 | 86 | 1009.0 |
| 20260905044519 | 17 | 105 | 1.6 | 8.0 | 0.00 | 0.03 | 0.00 | 86 | 1009.0 |
| 20260905043017 | 17 | 235 | 3.2 | 9.7 | 0.00 | 0.03 | 0.00 | 87 | 1008.9 |
| 20260905041516 | 17 | 32 | 3.2 | 8.0 | 0.00 | 0.03 | 0.00 | 86 | 1009.0 |
| 20260905040015 | 17 | 71 | 1.6 | 9.7 | 0.00 | 0.03 | 0.00 | 86 | 1009.0 |
| 20260905034516 | 17 | 39 | 1.6 | 9.7 | 0.00 | 0.03 | 0.03 | 87 | 1008.8 |
| 20260905033013 | 17 | 114 | 0.0 | 3.2 | 0.00 | 0.03 | 0.03 | 90 | 1009.2 |
| 20260905031512 | 16 | 222 | 0.0 | 0.0 | 0.00 | 0.03 | 0.03 | 89 | 1009.2 |
| 20260905030014 | 16 | 210 | 0.0 | 1.6 | 0.00 | 0.03 | 0.03 | 89 | 1009.2 |
| 20260905024512 | 16 | 195 | 0.0 | 0.0 | 0.00 | 0.03 | 0.03 | 88 | 1009.3 |
| 20260905023014 | 17 | 181 | 0.0 | 0.0 | 0.00 | 0.03 | 0.03 | 89 | 1009.3 |
| 20260905021511 | 17 | 177 | 0.0 | 0.0 | 0.00 | 0.03 | 0.03 | 88 | 1009.6 |
| 20260905020012 | 17 | 170 | 0.0 | 4.8 | 0.00 | 0.03 | 0.03 | 87 | 1009.3 |
| 20260905014510 | 18 | 176 | 0.0 | 4.8 | 0.00 | 0.03 | 0.03 | 86 | 1009.3 |
| 20260905013011 | 18 | 240 | 0.0 | 4.8 | 0.00 | 0.03 | 0.03 | 88 | 1009.4 |
| 20260905011514 | 17 | 158 | 0.0 | 6.4 | 0.00 | 0.03 | 0.03 | 90 | 1009.4 |
| 20260905010009 | 17 | 175 | 0.0 | 1.6 | 0.00 | 0.03 | 0.03 | 89 | 1009.5 |
| 20260905004513 | 17 | 226 | 0.0 | 1.6 | 0.00 | 0.03 | 0.03 | 92 | 1009.6 |
| 20260905003013 | 17 | 147 | 0.0 | 0.0 | 0.00 | 0.03 | 0.03 | 91 | 1009.5 |
| 20260905001510 | 17 | 146 | 0.0 | 0.0 | 0.00 | 0.03 | 0.03 | 90 | 1009.5 |
| 20260905000007 | 17 | 147 | 0.0 | 0.0 | 0.00 | 0.03 | 0.03 | 90 | 1009.5 |
| 20260904234505 | 17 | 146 | 0.0 | 0.0 | 0.00 | 0.71 | 0.03 | 90 | 1009.0 |
| 20260904233005 | 17 | 146 | 0.0 | 0.0 | 0.00 | 0.71 | 0.03 | 89 | 1009.1 |
| 20260904231510 | 18 | 150 | 0.0 | 0.0 | 0.00 | 0.71 | 0.03 | 89 | 1009.2 |
| 20260904230014 | 18 | 167 | 0.0 | 0.0 | 0.00 | 0.71 | 0.03 | 87 | 1009.3 |
| 20260904224502 | 19 | 167 | 0.0 | 0.0 | 0.00 | 0.71 | 0.03 | 85 | 1009.2 |
| 20260904223001 | 20 | 356 | 0.0 | 6.4 | 0.00 | 0.71 | 0.03 | 77 | 1008.9 |
| 20260904221502 | 20 | 274 | 1.6 | 8.0 | 0.00 | 0.71 | 0.03 | 81 | 1008.8 |
| 20260904220002 | 19 | 176 | 0.0 | 3.2 | 0.00 | 0.71 | 0.03 | 81 | 1008.8 |
| 20260904214500 | 20 | 191 | 0.0 | 0.0 | 0.00 | 0.71 | 0.03 | 82 | 1008.8 |
| 20260904213101 | 21 | 178 | 0.0 | 6.4 | 0.00 | 0.71 | 0.03 | 81 | 1008.6 |
| 20260904211604 | 21 | 356 | 3.2 | 12.9 | 0.00 | 0.71 | 0.03 | 75 | 1008.8 |
| 20260904210159 | 21 | 287 | 1.6 | 11.3 | 0.00 | 0.71 | 0.03 | 77 | 1008.7 |
| 20260904204558 | 21 | 189 | 0.0 | 1.6 | 0.00 | 0.71 | 0.03 | 83 | 1008.6 |
| 20260904203058 | 21 | 183 | 0.0 | 0.0 | 0.00 | 0.71 | 0.03 | 82 | 1008.8 |
| 20260904201558 | 21 | 188 | 0.0 | 4.8 | 0.00 | 0.71 | 0.03 | 79 | 1008.8 |
| 20260904194556 | 22 | 262 | 3.2 | 11.3 | 0.00 | 0.71 | 0.03 | 74 | 1008.8 |
| 20260904193056 | 22 | 39 | 3.2 | 12.9 | 0.00 | 0.71 | 0.03 | 71 | 1009.0 |
| 20260904191552 | 22 | 243 | 3.2 | 9.7 | 0.00 | 0.71 | 0.03 | 75 | 1008.8 |
| 20260904190052 | 22 | 79 | 0.0 | 8.0 | 0.00 | 0.71 | 0.03 | 76 | 1009.0 |
| 20260904184607 | 21 | 176 | 0.0 | 0.0 | 0.00 | 0.71 | 0.03 | 82 | 1009.0 |
| 20260904183049 | 21 | 88 | 0.0 | 4.8 | 0.00 | 0.71 | 0.03 | 77 | 1008.8 |
| 20260904181549 | 22 | 135 | 1.6 | 9.7 | 0.00 | 0.71 | 0.03 | 75 | 1009.0 |
| 20260904180047 | 22 | 18 | 4.8 | 9.7 | 0.00 | 0.71 | 0.03 | 74 | 1009.1 |
| 20260904174612 | 22 | 242 | 0.0 | 8.0 | 0.00 | 0.71 | 0.03 | 73 | 1009.0 |
| 20260904173047 | 22 | 265 | 1.6 | 6.4 | 0.00 | 0.71 | 0.03 | 73 | 1009.1 |
| 20260904171541 | 22 | 270 | 0.0 | 11.3 | 0.03 | 0.71 | 0.03 | 72 | 1009.3 |
| 20260904170047 | 22 | 291 | 3.2 | 11.3 | 0.03 | 0.71 | 0.03 | 71 | 1009.4 |
| 20260904164537 | 20 | 36 | 1.6 | 6.4 | 0.03 | 0.71 | 0.03 | 86 | 1009.4 |
| 20260904163049 | 20 | 15 | 0.0 | 4.8 | 0.03 | 0.71 | 0.03 | 87 | 1009.4 |
| 20260904161536 | 21 | 210 | 0.0 | 0.0 | 0.00 | 0.71 | 0.00 | 87 | 1009.4 |
| 20260904160034 | 21 | 210 | 0.0 | 1.6 | 0.00 | 0.71 | 0.00 | 85 | 1009.6 |
| 20260904154532 | 22 | 327 | 1.6 | 6.4 | 0.00 | 0.71 | 0.00 | 79 | 1009.8 |
| 20260904153029 | 22 | 275 | 0.0 | 1.6 | 0.00 | 0.71 | 0.00 | 85 | 1009.8 |
| 20260904151528 | 21 | 105 | 0.0 | 4.8 | 0.00 | 0.71 | 0.00 | 85 | 1009.9 |
| 20260904150033 | 21 | 210 | 0.0 | 4.8 | 0.00 | 0.71 | 0.00 | 88 | 1010.0 |
| 20260904144517 | 20 | 264 | 0.0 | 3.2 | 0.00 | 0.71 | 0.00 | 89 | 1010.0 |
| 20260904143016 | 20 | 41 | 0.0 | 6.4 | 0.00 | 0.71 | 0.00 | 93 | 1010.1 |
| 20260904141510 | 18 | 179 | 0.0 | 0.0 | 0.00 | 0.71 | 0.00 | 94 | 1010.3 |
| 20260904140007 | 18 | 174 | 0.0 | 0.0 | 0.00 | 0.71 | 0.00 | 95 | 1010.2 |
| 20260904134502 | 18 | 174 | 0.0 | 0.0 | 0.00 | 0.71 | 0.00 | 95 | 1010.1 |
| 20260904133004 | 17 | 127 | 0.0 | 0.0 | 0.00 | 0.71 | 0.00 | 95 | 1010.2 |
| 20260904131559 | 17 | 127 | 0.0 | 0.0 | 0.00 | 0.71 | 0.00 | 95 | 1010.3 |
| 20260904130003 | 17 | 101 | 0.0 | 3.2 | 0.00 | 0.71 | 0.00 | 95 | 1010.3 |
| 20260904124542 | 16 | 265 | 0.0 | 0.0 | 0.00 | 0.71 | 0.00 | 95 | 1010.3 |
| 20260904123039 | 16 | 103 | 0.0 | 3.2 | 0.00 | 0.71 | 0.00 | 96 | 1010.2 |
| 20260904121536 | 15 | 89 | 0.0 | 1.6 | 0.00 | 0.71 | 0.00 | 96 | 1010.2 |